createdAt,value
2022-12-31T00:00:30.857Z,2.96
2022-12-31T00:05:38.865Z,2.77
2022-12-31T00:10:45.066Z,2.63
2022-12-31T00:15:49.493Z,2.56
2022-12-31T00:20:55.209Z,2.91
2022-12-31T00:26:04.397Z,2.68
2022-12-31T00:31:10.687Z,2.44
2022-12-31T00:36:18.591Z,2.40
2022-12-31T00:41:23.770Z,2.48
2022-12-31T00:46:28.135Z,2.64
2022-12-31T00:51:33.703Z,2.58
2022-12-31T00:56:37.801Z,2.50
2022-12-31T01:01:43.414Z,2.72
2022-12-31T01:06:50.022Z,2.58
2022-12-31T01:11:54.011Z,2.66
2022-12-31T01:16:58.014Z,2.56
2022-12-31T01:22:03.428Z,2.71
2022-12-31T01:27:07.665Z,2.57
2022-12-31T01:32:12.126Z,2.48
2022-12-31T01:37:17.475Z,2.37
2022-12-31T01:42:21.697Z,2.62
2022-12-31T01:47:35.700Z,2.81
2022-12-31T01:52:46.568Z,2.79
2022-12-31T01:57:55.547Z,2.66
2022-12-31T02:03:00.496Z,2.58
2022-12-31T02:08:07.809Z,2.69
2022-12-31T02:13:12.638Z,2.64
2022-12-31T02:18:25.491Z,2.72
2022-12-31T02:24:11.094Z,2.99
2022-12-31T02:29:47.748Z,2.86
2022-12-31T02:34:56.881Z,2.98
2022-12-31T02:40:02.257Z,2.81
2022-12-31T02:45:08.128Z,2.77
2022-12-31T02:50:31.139Z,2.84
2022-12-31T02:55:46.071Z,2.87
2022-12-31T03:01:12.983Z,2.82
2022-12-31T03:06:21.274Z,2.95
2022-12-31T03:11:39.115Z,3.11
2022-12-31T03:16:43.484Z,3.29
2022-12-31T03:22:06.214Z,3.14
2022-12-31T03:27:10.496Z,3.50
2022-12-31T03:32:14.417Z,3.48
2022-12-31T03:37:19.833Z,3.31
2022-12-31T03:42:25.381Z,3.49
2022-12-31T03:47:29.715Z,3.53
2022-12-31T03:52:37.294Z,3.27
2022-12-31T03:57:45.172Z,3.61
2022-12-31T04:02:50.780Z,3.61
2022-12-31T04:07:56.553Z,3.33
2022-12-31T04:13:02.524Z,3.46
2022-12-31T04:18:07.079Z,3.69
2022-12-31T04:23:13.632Z,3.57
2022-12-31T04:28:17.852Z,3.49
2022-12-31T04:33:22.306Z,3.00
2022-12-31T04:38:29.878Z,2.77
2022-12-31T04:43:33.874Z,2.65
2022-12-31T04:48:38.354Z,2.69
2022-12-31T04:53:43.853Z,2.63
2022-12-31T04:58:48.898Z,2.71
2022-12-31T05:03:53.239Z,2.66
2022-12-31T05:08:59.085Z,2.69
2022-12-31T05:14:03.073Z,2.69
2022-12-31T05:19:09.772Z,2.38
2022-12-31T05:24:15.132Z,2.48
2022-12-31T05:29:19.179Z,2.39
2022-12-31T05:34:23.240Z,2.61
2022-12-31T05:39:28.660Z,2.45
2022-12-31T05:44:33.078Z,2.31
2022-12-31T05:49:37.177Z,1.95
2022-12-31T05:54:43.083Z,2.21
2022-12-31T05:59:47.038Z,2.49
2022-12-31T06:04:51.914Z,2.04
2022-12-31T06:09:57.612Z,1.78
2022-12-31T06:15:01.621Z,1.75
2022-12-31T06:20:12.854Z,1.72
2022-12-31T06:25:19.011Z,1.74
2022-12-31T06:30:25.580Z,1.91
2022-12-31T06:35:29.579Z,2.07
2022-12-31T06:40:38.014Z,1.95
2022-12-31T06:45:42.861Z,2.14
2022-12-31T06:50:47.284Z,2.30
2022-12-31T06:55:53.838Z,2.32
2022-12-31T07:01:03.341Z,2.57
2022-12-31T07:06:14.927Z,2.91
2022-12-31T07:11:24.315Z,3.63
2022-12-31T07:16:37.593Z,4.64
2022-12-31T07:21:42.693Z,5.26
2022-12-31T07:27:03.112Z,5.73
2022-12-31T07:32:17.661Z,6.60
2022-12-31T07:37:32.971Z,7.66
2022-12-31T07:42:55.266Z,7.80
2022-12-31T07:48:02.787Z,8.57
2022-12-31T07:53:07.642Z,9.36
2022-12-31T07:58:23.675Z,9.74
2022-12-31T08:03:48.078Z,10.00
2022-12-31T08:08:59.962Z,10.32
2022-12-31T08:14:11.975Z,10.74
2022-12-31T08:19:25.931Z,11.63
2022-12-31T08:24:41.679Z,12.15
2022-12-31T08:29:56.088Z,12.36
2022-12-31T08:35:04.565Z,12.98
2022-12-31T08:40:19.899Z,12.82
2022-12-31T08:45:30.204Z,13.18
2022-12-31T08:50:35.249Z,13.23
2022-12-31T08:55:39.853Z,13.82
2022-12-31T09:00:49.436Z,14.31
2022-12-31T09:06:15.257Z,14.84
2022-12-31T09:11:24.627Z,15.32
2022-12-31T09:16:38.311Z,15.09
2022-12-31T09:21:44.753Z,14.55
2022-12-31T09:26:58.844Z,15.06
2022-12-31T09:32:11.768Z,15.37
2022-12-31T09:37:19.749Z,15.94
2022-12-31T09:42:53.524Z,16.00
2022-12-31T09:48:45.815Z,18.41
2022-12-31T09:54:06.633Z,19.38
2022-12-31T09:59:18.677Z,19.80
2022-12-31T10:04:55.885Z,19.62
2022-12-31T10:10:12.187Z,20.55
2022-12-31T10:15:43.120Z,20.54
2022-12-31T10:21:04.412Z,19.97
2022-12-31T10:26:32.995Z,20.02
2022-12-31T10:31:45.345Z,18.73
2022-12-31T10:37:08.080Z,18.14
2022-12-31T10:42:47.757Z,18.18
2022-12-31T10:48:34.247Z,18.22
2022-12-31T10:54:06.356Z,17.97
2022-12-31T10:59:42.368Z,17.81
2022-12-31T11:05:13.126Z,17.51
2022-12-31T11:11:08.027Z,17.72
2022-12-31T11:16:34.715Z,17.86
2022-12-31T11:22:02.107Z,17.57
2022-12-31T11:27:23.885Z,17.06
2022-12-31T11:32:51.453Z,17.18
2022-12-31T11:38:05.923Z,17.65
2022-12-31T11:43:30.530Z,17.98
2022-12-31T11:48:48.960Z,17.91
2022-12-31T11:54:28.789Z,17.47
2022-12-31T11:59:33.704Z,17.57
2022-12-31T12:04:39.847Z,17.63
2022-12-31T12:09:45.801Z,17.46
2022-12-31T12:14:55.406Z,18.49
2022-12-31T12:20:05.926Z,18.57
2022-12-31T12:25:22.418Z,18.45
2022-12-31T12:30:29.226Z,18.77
2022-12-31T12:35:36.715Z,19.00
2022-12-31T12:40:41.349Z,18.86
2022-12-31T12:45:52.045Z,19.12
2022-12-31T12:51:13.129Z,19.13
2022-12-31T12:56:43.597Z,18.95
2022-12-31T13:02:16.371Z,18.54
2022-12-31T13:08:20.249Z,18.60
2022-12-31T13:14:17.257Z,18.42
2022-12-31T13:19:43.826Z,18.61
2022-12-31T13:25:05.904Z,18.06
2022-12-31T13:30:44.611Z,17.50
2022-12-31T13:36:16.416Z,17.35
2022-12-31T13:41:56.781Z,16.66
2022-12-31T13:47:34.352Z,16.48
2022-12-31T13:52:44.005Z,16.97
2022-12-31T13:57:54.777Z,16.55
2022-12-31T14:03:12.638Z,16.33
2022-12-31T14:08:17.235Z,15.68
2022-12-31T14:13:40.558Z,14.50
2022-12-31T14:18:55.343Z,13.67
2022-12-31T14:24:06.531Z,13.35
2022-12-31T14:29:24.702Z,13.07
2022-12-31T14:34:42.522Z,12.71
2022-12-31T14:40:01.087Z,12.15
2022-12-31T14:45:37.555Z,12.07
2022-12-31T14:50:45.353Z,11.81
2022-12-31T14:55:59.380Z,11.47
2022-12-31T15:01:09.122Z,10.99
2022-12-31T15:06:42.509Z,10.64
2022-12-31T15:12:06.796Z,10.26
2022-12-31T15:17:27.694Z,9.99
2022-12-31T15:22:38.001Z,9.69
2022-12-31T15:27:42.696Z,9.13
2022-12-31T15:32:48.948Z,8.79
2022-12-31T15:38:01.702Z,8.67
2022-12-31T15:43:15.581Z,8.49
2022-12-31T15:48:25.108Z,8.34
2022-12-31T15:53:35.104Z,8.08
2022-12-31T15:58:39.923Z,7.80
2022-12-31T16:03:51.894Z,7.80
2022-12-31T16:08:57.082Z,7.71
2022-12-31T16:14:01.871Z,7.67
2022-12-31T16:19:35.187Z,7.65
2022-12-31T16:25:02.697Z,7.52
2022-12-31T16:30:08.736Z,7.44
2022-12-31T16:35:25.881Z,7.14
2022-12-31T16:40:29.911Z,7.06
2022-12-31T16:45:37.057Z,6.93
2022-12-31T16:50:46.484Z,6.80
2022-12-31T16:55:58.850Z,6.70
2022-12-31T17:01:14.331Z,6.63
2022-12-31T17:06:22.389Z,6.25
2022-12-31T17:11:32.848Z,6.07
2022-12-31T17:16:42.194Z,6.03
2022-12-31T17:21:53.920Z,5.98
2022-12-31T17:27:07.449Z,5.91
2022-12-31T17:32:32.397Z,5.83
2022-12-31T17:37:38.373Z,5.65
2022-12-31T17:42:43.339Z,5.72
2022-12-31T17:47:51.680Z,5.66
2022-12-31T17:53:00.720Z,5.39
2022-12-31T17:58:08.103Z,5.47
2022-12-31T18:03:12.273Z,5.44
2022-12-31T18:08:17.747Z,5.47
2022-12-31T18:13:25.110Z,5.21
2022-12-31T18:18:31.199Z,5.16
2022-12-31T18:23:39.847Z,5.30
2022-12-31T18:28:46.695Z,5.36
2022-12-31T18:33:51.733Z,5.36
2022-12-31T18:38:57.256Z,5.28
2022-12-31T18:44:02.053Z,5.28
2022-12-31T18:49:07.351Z,5.19
2022-12-31T18:54:13.011Z,5.27
2022-12-31T18:59:17.898Z,5.19
2022-12-31T19:04:28.281Z,5.01
2022-12-31T19:09:54.626Z,5.08
2022-12-31T19:14:59.923Z,5.18
2022-12-31T19:20:04.645Z,4.91
2022-12-31T19:25:19.682Z,4.71
2022-12-31T19:30:27.778Z,4.84
2022-12-31T19:35:32.152Z,4.76
2022-12-31T19:40:39.775Z,4.62
2022-12-31T19:45:45.824Z,4.44
2022-12-31T19:50:52.927Z,4.41
2022-12-31T19:55:58.555Z,4.56
2022-12-31T20:01:03.444Z,4.58
2022-12-31T20:06:10.233Z,4.34
2022-12-31T20:11:17.386Z,4.12
2022-12-31T20:16:23.744Z,4.18
2022-12-31T20:21:30.276Z,4.31
2022-12-31T20:26:35.748Z,3.98
2022-12-31T20:31:39.995Z,4.06
2022-12-31T20:36:44.153Z,4.10
2022-12-31T20:41:52.278Z,4.19
2022-12-31T20:46:56.489Z,3.87
2022-12-31T20:52:01.161Z,3.77
2022-12-31T20:57:06.980Z,3.80
2022-12-31T21:02:29.507Z,3.94
2022-12-31T21:07:40.283Z,3.70
2022-12-31T21:12:46.632Z,3.91
2022-12-31T21:17:53.232Z,3.92
2022-12-31T21:22:58.511Z,3.69
2022-12-31T21:28:03.835Z,3.63
2022-12-31T21:33:08.380Z,3.54
2022-12-31T21:38:12.614Z,3.47
2022-12-31T21:43:21.246Z,3.50
2022-12-31T21:48:25.695Z,3.47
2022-12-31T21:53:36.690Z,3.53
2022-12-31T21:58:44.997Z,3.68
2022-12-31T22:03:49.228Z,3.90
2022-12-31T22:08:56.025Z,3.58
2022-12-31T22:14:01.595Z,3.52
2022-12-31T22:19:06.332Z,3.56
2022-12-31T22:24:10.829Z,3.46
2022-12-31T22:29:16.422Z,3.16
2022-12-31T22:34:21.609Z,3.21
2022-12-31T22:39:44.533Z,3.40
2022-12-31T22:44:54.436Z,3.40
2022-12-31T22:49:58.972Z,3.32
2022-12-31T22:55:05.479Z,3.13
2022-12-31T23:00:15.190Z,3.17
2022-12-31T23:05:20.802Z,3.03
2022-12-31T23:10:41.990Z,3.25
2022-12-31T23:16:04.963Z,3.22
2022-12-31T23:21:29.839Z,3.41
2022-12-31T23:26:33.984Z,3.47
2022-12-31T23:31:42.800Z,3.25
2022-12-31T23:36:47.513Z,3.13
2022-12-31T23:41:51.653Z,3.20
2022-12-31T23:46:57.502Z,3.32
2022-12-31T23:52:01.835Z,3.04
2022-12-31T23:57:06.220Z,2.81
